Time;durP1;ratioP1;P1;durP2;ratioP2;P2;SDS_P1;SDS_P2;PMS_P1;PMS_P2;Temp;Humidity;BMP_temperature;BMP_pressure;BME280_temperature;BME280_humidity;BME280_pressure;Samples;Min_cycle;Max_cycle;Signal;HPM_P1;HPM_P2
2023/08/10 00:02:25;;;;;;;19.63;18.50;;;;;;;16.80;100.00;93070.72;5067393;28;20090;-77
2023/08/10 00:04:51;;;;;;;23.98;22.77;;;;;;;16.79;100.00;93059.56;5067734;28;20098;-76
2023/08/10 00:07:19;;;;;;;22.60;21.52;;;;;;;16.82;100.00;93060.88;5067341;28;20117;-77
2023/08/10 00:09:47;;;;;;;18.30;17.38;;;;;;;16.89;100.00;93065.84;5066753;28;20047;-77
2023/08/10 00:12:14;;;;;;;27.77;26.48;;;;;;;16.79;100.00;93054.38;5067542;28;20090;-77
2023/08/10 00:14:41;;;;;;;22.67;21.58;;;;;;;16.88;100.00;93059.84;5068088;28;20041;-76
2023/08/10 00:17:08;;;;;;;25.23;24.00;;;;;;;16.81;100.00;93048.94;5065736;28;20189;-75
2023/08/10 00:19:35;;;;;;;24.75;23.58;;;;;;;16.90;100.00;93059.59;5066208;28;20044;-78
2023/08/10 00:22:01;;;;;;;23.13;21.92;;;;;;;16.92;100.00;93063.53;5065092;28;20139;-76
2023/08/10 00:24:28;;;;;;;17.33;16.42;;;;;;;16.94;100.00;93063.28;5063646;28;20445;-77
2023/08/10 00:26:56;;;;;;;23.42;22.00;;;;;;;16.92;100.00;93049.75;5064854;28;20045;-76
2023/08/10 00:29:23;;;;;;;19.23;18.13;;;;;;;16.89;100.00;93061.41;5066324;28;20048;-76
2023/08/10 00:31:50;;;;;;;28.23;26.85;;;;;;;16.60;100.00;93056.59;5065839;28;20044;-77
2023/08/10 00:34:17;;;;;;;21.95;20.85;;;;;;;16.38;100.00;93048.97;5066835;28;20094;-76
2023/08/10 00:36:44;;;;;;;23.20;22.00;;;;;;;16.38;100.00;93047.13;5066698;28;20053;-75
2023/08/10 00:39:10;;;;;;;28.15;26.80;;;;;;;16.45;100.00;93051.31;5066046;28;20056;-76
2023/08/10 00:41:38;;;;;;;28.13;26.65;;;;;;;16.51;100.00;93052.91;5066705;28;20048;-76
2023/08/10 00:44:06;;;;;;;20.48;19.38;;;;;;;16.56;100.00;93045.94;5066398;28;20049;-75
2023/08/10 00:46:34;;;;;;;23.65;22.45;;;;;;;16.46;100.00;93034.72;5064120;28;20045;-76
2023/08/10 00:49:00;;;;;;;26.80;25.38;;;;;;;16.59;100.00;93033.50;5065639;28;20053;-76
2023/08/10 00:51:27;;;;;;;25.65;24.35;;;;;;;16.59;100.00;93036.88;5063627;28;20086;-76
2023/08/10 00:53:54;;;;;;;28.10;26.70;;;;;;;16.61;100.00;93031.47;5062989;28;20110;-77
2023/08/10 00:56:21;;;;;;;22.85;21.75;;;;;;;16.61;100.00;93037.41;5062842;28;20106;-76
2023/08/10 00:58:48;;;;;;;22.50;21.40;;;;;;;16.63;100.00;93040.56;5066729;28;20098;-76
2023/08/10 01:01:16;;;;;;;28.45;27.08;;;;;;;16.62;100.00;93033.00;5063721;28;20503;-76
2023/08/10 01:03:43;;;;;;;27.10;25.70;;;;;;;16.59;100.00;93038.69;5066268;28;20490;-76
2023/08/10 01:06:17;;;;;;;24.77;23.58;;;;;;;16.56;100.00;93042.56;5066261;28;20041;-76
2023/08/10 01:08:53;;;;;;;33.45;31.80;;;;;;;16.44;100.00;93042.78;5063814;28;20480;-77
2023/08/10 01:11:27;;;;;;;26.17;24.88;;;;;;;16.48;100.00;93050.81;5065954;28;20049;-77
2023/08/10 01:14:03;;;;;;;24.75;23.58;;;;;;;16.22;100.00;93043.66;5064009;28;20049;-77
2023/08/10 01:16:34;;;;;;;33.63;32.03;;;;;;;16.04;100.00;93016.31;5060519;28;20045;-77
2023/08/10 01:19:02;;;;;;;31.88;30.23;;;;;;;16.22;100.00;93048.84;5065203;28;20131;-76
2023/08/10 01:21:37;;;;;;;33.45;31.85;;;;;;;16.25;100.00;93053.53;5063216;28;20060;-76
2023/08/10 01:24:10;;;;;;;34.60;32.83;;;;;;;16.25;100.00;93048.34;5062248;28;21219;-76
2023/08/10 01:26:38;;;;;;;31.50;29.92;;;;;;;15.93;100.00;93043.97;5066973;28;20282;-76
2023/08/10 01:29:06;;;;;;;27.70;26.35;;;;;;;15.92;100.00;93047.53;5061812;28;20044;-76
2023/08/10 01:31:32;;;;;;;34.28;32.70;;;;;;;15.99;100.00;93049.97;5062302;28;20041;-76
2023/08/10 01:33:59;;;;;;;32.42;30.92;;;;;;;16.05;100.00;93046.38;5060060;28;20048;-76
2023/08/10 01:36:26;;;;;;;29.83;28.42;;;;;;;16.10;100.00;93043.84;5065293;28;20090;-76
2023/08/10 01:38:52;;;;;;;27.77;26.35;;;;;;;16.15;100.00;93046.47;5065842;28;20044;-76
2023/08/10 01:41:19;;;;;;;31.13;29.52;;;;;;;16.24;100.00;93051.19;5062009;28;20049;-76
2023/08/10 01:43:47;;;;;;;27.88;26.48;;;;;;;16.27;100.00;93056.66;5065036;28;20510;-76
2023/08/10 01:46:18;;;;;;;27.80;26.40;;;;;;;16.27;100.00;93050.69;5064895;28;20094;-76
2023/08/10 01:48:48;;;;;;;29.27;27.85;;;;;;;16.19;100.00;93026.00;5064819;28;20056;-76
2023/08/10 01:51:17;;;;;;;32.55;30.85;;;;;;;16.31;100.00;93031.03;5064276;28;20048;-76
2023/08/10 01:53:46;;;;;;;34.63;33.00;;;;;;;16.14;100.00;93007.84;5066736;28;20726;-76
2023/08/10 01:56:13;;;;;;;26.95;25.65;;;;;;;16.22;100.00;93015.16;5063338;28;20049;-76
2023/08/10 01:58:40;;;;;;;29.08;27.38;;;;;;;16.18;100.00;93016.69;5069828;28;20514;-76
2023/08/10 02:01:08;;;;;;;32.47;30.85;;;;;;;16.28;100.00;93042.66;5067798;28;20052;-76
2023/08/10 02:03:35;;;;;;;32.60;30.98;;;;;;;16.29;100.00;93046.03;5064090;28;20040;-77
2023/08/10 02:06:01;;;;;;;37.80;35.97;;;;;;;16.30;100.00;93050.97;5066452;28;20048;-77
2023/08/10 02:08:28;;;;;;;39.28;37.58;;;;;;;15.99;100.00;93052.56;5063805;28;20041;-77
2023/08/10 02:10:55;;;;;;;45.80;43.70;;;;;;;15.82;100.00;93060.41;5069570;28;20045;-77
2023/08/10 02:13:21;;;;;;;49.70;47.30;;;;;;;15.30;100.00;93063.28;5069708;28;20053;-76
2023/08/10 02:15:48;;;;;;;110.53;105.65;;;;;;;15.29;100.00;93079.84;5067982;28;20041;-79
2023/08/10 02:18:17;;;;;;;73.78;70.45;;;;;;;15.48;100.00;93097.63;5068452;28;20428;-79
2023/08/10 02:20:44;;;;;;;47.40;45.10;;;;;;;15.51;100.00;93089.41;5066430;28;20045;-79
2023/08/10 02:23:10;;;;;;;46.88;44.65;;;;;;;15.60;100.00;93108.63;5070486;28;20459;-79
2023/08/10 02:25:37;;;;;;;57.33;54.67;;;;;;;15.69;100.00;93106.38;5068545;28;20044;-80
2023/08/10 02:28:04;;;;;;;35.40;33.60;;;;;;;15.74;100.00;93116.78;5066619;28;20053;-82
2023/08/10 02:30:31;;;;;;;40.08;38.08;;;;;;;15.82;100.00;93117.38;5066870;28;20427;-79
2023/08/10 02:32:58;;;;;;;60.28;57.35;;;;;;;15.31;100.00;93105.44;5068695;28;20498;-79
2023/08/10 02:35:26;;;;;;;63.70;60.60;;;;;;;15.21;100.00;93112.09;5065704;28;20049;-78
2023/08/10 02:37:53;;;;;;;58.22;55.53;;;;;;;14.85;100.00;93106.44;5067905;28;20919;-79
2023/08/10 02:40:21;;;;;;;63.20;60.22;;;;;;;14.43;100.00;93105.84;5068127;28;20066;-79
2023/08/10 02:42:47;;;;;;;78.13;74.63;;;;;;;14.60;100.00;93110.22;5069459;28;20052;-78
2023/08/10 02:45:14;;;;;;;127.60;121.97;;;;;;;14.78;100.00;93122.16;5067404;28;20619;-78
2023/08/10 02:47:41;;;;;;;198.48;189.88;;;;;;;14.88;100.00;93126.69;5069310;28;20085;-78
2023/08/10 02:50:09;;;;;;;95.43;91.18;;;;;;;15.00;100.00;93128.38;5063575;28;20044;-78
2023/08/10 02:52:37;;;;;;;104.43;99.82;;;;;;;15.08;100.00;93139.09;5068414;28;20838;-78
2023/08/10 02:55:04;;;;;;;152.70;146.10;;;;;;;15.29;100.00;93156.69;5066480;28;20070;-78
2023/08/10 02:57:32;;;;;;;49.92;47.25;;;;;;;15.41;100.00;93157.34;5066578;28;20052;-77
2023/08/10 02:59:59;;;;;;;49.03;46.70;;;;;;;15.36;100.00;93149.50;5068848;28;20098;-75
2023/08/10 03:02:28;;;;;;;66.18;63.13;;;;;;;15.23;100.00;93135.91;5062863;28;20064;-75
2023/08/10 03:04:55;;;;;;;57.20;54.38;;;;;;;15.12;100.00;93113.53;5068073;28;20561;-74
2023/08/10 03:07:21;;;;;;;71.35;68.05;;;;;;;14.82;100.00;93107.72;5068731;28;20456;-74
2023/08/10 03:09:50;;;;;;;61.10;58.28;;;;;;;14.99;100.00;93119.81;5068600;28;20491;-73
2023/08/10 03:12:17;;;;;;;79.53;75.78;;;;;;;15.10;100.00;93128.50;5067447;28;20079;-74
2023/08/10 03:14:44;;;;;;;80.65;76.85;;;;;;;15.23;100.00;93135.91;5068946;28;20139;-75
2023/08/10 03:17:11;;;;;;;142.57;136.10;;;;;;;15.34;100.00;93139.41;5067606;28;20041;-75
2023/08/10 03:19:37;;;;;;;52.65;50.13;;;;;;;15.47;100.00;93130.47;5068826;28;20417;-75
2023/08/10 03:22:04;;;;;;;65.47;62.47;;;;;;;15.52;100.00;93116.03;5064697;28;20148;-76
2023/08/10 03:24:31;;;;;;;59.65;56.70;;;;;;;15.53;100.00;93120.19;5062526;28;20061;-75
2023/08/10 03:26:59;;;;;;;63.80;60.83;;;;;;;15.65;100.00;93131.22;5065836;28;20044;-77
2023/08/10 03:29:26;;;;;;;61.47;58.70;;;;;;;15.67;100.00;93141.31;5065862;28;20084;-77
2023/08/10 03:31:52;;;;;;;48.13;45.83;;;;;;;15.66;100.00;93130.19;5067007;28;20060;-77
2023/08/10 03:34:19;;;;;;;60.47;57.53;;;;;;;15.71;100.00;93138.00;5068688;28;20106;-75
2023/08/10 03:36:46;;;;;;;43.13;41.15;;;;;;;15.64;100.00;93137.41;5066522;28;20045;-75
2023/08/10 03:39:12;;;;;;;47.22;45.00;;;;;;;15.50;100.00;93142.97;5068120;28;20490;-75
2023/08/10 03:41:39;;;;;;;45.65;43.47;;;;;;;15.36;100.00;93144.34;5066599;28;20052;-76
2023/08/10 03:44:07;;;;;;;107.88;103.13;;;;;;;15.27;100.00;93138.78;5067308;28;20109;-76
2023/08/10 03:46:34;;;;;;;50.35;48.03;;;;;;;15.26;100.00;93142.41;5064370;28;20095;-76
2023/08/10 03:49:01;;;;;;;56.20;53.75;;;;;;;15.25;100.00;93156.38;5061661;28;20048;-75
2023/08/10 03:51:27;;;;;;;109.00;104.03;;;;;;;15.20;100.00;93154.53;5065992;28;20498;-73
2023/08/10 03:53:54;;;;;;;63.47;60.63;;;;;;;15.26;100.00;93146.78;5066461;28;20044;-72
2023/08/10 03:56:21;;;;;;;51.75;49.38;;;;;;;15.30;100.00;93166.00;5063360;28;20049;-73
2023/08/10 03:58:48;;;;;;;57.55;54.78;;;;;;;15.21;100.00;93163.84;5067149;28;20047;-73
2023/08/10 04:01:16;;;;;;;49.85;47.55;;;;;;;15.25;100.00;93165.94;5066838;28;20070;-73
2023/08/10 04:03:43;;;;;;;63.80;60.83;;;;;;;15.29;100.00;93182.56;5067764;28;20056;-73
2023/08/10 04:06:10;;;;;;;49.80;47.53;;;;;;;15.37;100.00;93192.50;5066731;28;20049;-73
2023/08/10 04:08:37;;;;;;;58.38;55.55;;;;;;;15.46;100.00;93195.47;5065004;28;20045;-73
2023/08/10 04:11:04;;;;;;;53.80;51.33;;;;;;;15.54;100.00;93207.97;5063933;28;20041;-73
2023/08/10 04:13:31;;;;;;;60.67;58.00;;;;;;;15.57;100.00;93210.09;5067463;28;20595;-73
2023/08/10 04:15:57;;;;;;;74.95;71.53;;;;;;;15.57;100.00;93219.66;5064743;28;20090;-73
2023/08/10 04:18:25;;;;;;;122.60;117.10;;;;;;;15.61;100.00;93237.06;5066004;28;20407;-73
2023/08/10 04:20:52;;;;;;;52.85;50.47;;;;;;;15.60;100.00;93229.53;5067115;28;20113;-73
2023/08/10 04:23:19;;;;;;;75.00;71.60;;;;;;;15.60;100.00;93245.84;5065808;28;20083;-73
2023/08/10 04:25:46;;;;;;;53.40;50.92;;;;;;;15.71;100.00;93264.91;5064690;28;20131;-72
2023/08/10 04:28:13;;;;;;;57.50;54.95;;;;;;;15.67;100.00;93268.19;5067043;28;20045;-72
2023/08/10 04:30:39;;;;;;;46.92;44.75;;;;;;;15.55;100.00;93271.66;5063835;28;20056;-72
2023/08/10 04:33:06;;;;;;;76.22;72.75;;;;;;;15.57;100.00;93279.19;5065871;28;20511;-71
2023/08/10 04:35:34;;;;;;;86.30;82.38;;;;;;;15.63;100.00;93273.06;5060514;28;20097;-69
2023/08/10 04:38:01;;;;;;;40.75;38.85;;;;;;;15.65;100.00;93267.66;5063353;28;20506;-69
2023/08/10 04:40:29;;;;;;;48.50;46.15;;;;;;;15.68;100.00;93249.03;5067031;28;20044;-69
2023/08/10 04:42:56;;;;;;;55.15;52.72;;;;;;;15.58;100.00;93227.19;5064391;28;20144;-69
2023/08/10 04:45:22;;;;;;;42.35;40.42;;;;;;;15.30;100.00;93210.78;5065292;28;20059;-69
2023/08/10 04:47:49;;;;;;;47.67;45.30;;;;;;;15.25;100.00;93212.50;5067342;28;20048;-69
2023/08/10 04:50:16;;;;;;;48.35;46.00;;;;;;;15.30;100.00;93215.16;5066365;28;20102;-68
2023/08/10 04:52:44;;;;;;;71.75;68.57;;;;;;;15.35;100.00;93223.00;5065845;28;20076;-69
2023/08/10 04:55:11;;;;;;;53.88;51.22;;;;;;;15.42;100.00;93225.44;5066887;28;20057;-69
2023/08/10 04:57:38;;;;;;;55.33;52.70;;;;;;;15.42;100.00;93215.06;5062327;28;20075;-69
2023/08/10 05:00:10;;;;;;;46.95;44.67;;;;;;;15.42;100.00;93197.72;5065938;28;20502;-69
2023/08/10 05:02:38;;;;;;;60.85;58.00;;;;;;;15.41;100.00;93183.22;5064925;28;20056;-69
2023/08/10 05:05:06;;;;;;;46.17;44.05;;;;;;;15.22;100.00;93160.22;5065102;28;20048;-69
2023/08/10 05:07:33;;;;;;;61.97;59.13;;;;;;;15.23;100.00;93156.63;5062178;28;20047;-69
2023/08/10 05:10:04;;;;;;;130.88;125.05;;;;;;;15.29;100.00;93162.66;5065954;28;20049;-69
2023/08/10 05:12:31;;;;;;;50.58;48.20;;;;;;;15.23;100.00;93161.03;5063104;28;20040;-69
2023/08/10 05:17:42;;;;;;;63.83;60.95;;;;;;;15.24;100.00;93188.47;5064853;28;20051;-69
2023/08/10 05:20:11;;;;;;;146.70;140.45;;;;;;;15.38;100.00;93190.69;5064190;28;20114;-69
2023/08/10 05:22:41;;;;;;;91.97;88.03;;;;;;;15.47;100.00;93192.59;5061029;28;20066;-69
2023/08/10 05:25:10;;;;;;;67.95;64.97;;;;;;;15.54;100.00;93184.69;5064151;28;20053;-69
2023/08/10 05:27:38;;;;;;;53.28;50.90;;;;;;;15.56;100.00;93172.25;5061751;28;20044;-69
2023/08/10 05:30:08;;;;;;;56.03;53.63;;;;;;;15.65;100.00;93183.00;5063694;28;20564;-69
2023/08/10 05:32:35;;;;;;;49.42;47.00;;;;;;;15.68;100.00;93186.88;5062070;28;20087;-69
2023/08/10 05:35:04;;;;;;;46.55;44.35;;;;;;;15.72;100.00;93185.38;5061837;28;20045;-69
2023/08/10 05:37:31;;;;;;;71.80;68.70;;;;;;;15.79;100.00;93198.16;5063684;28;20040;-70
2023/08/10 05:39:58;;;;;;;53.63;51.17;;;;;;;15.80;100.00;93192.75;5060535;28;20049;-70
2023/08/10 05:42:26;;;;;;;54.70;52.25;;;;;;;15.84;100.00;93195.63;5059964;28;20102;-70
2023/08/10 05:44:53;;;;;;;41.17;39.28;;;;;;;15.86;100.00;93188.38;5061034;28;20045;-69
2023/08/10 05:47:19;;;;;;;33.00;31.50;;;;;;;15.84;100.00;93186.03;5062279;28;20132;-70
2023/08/10 05:49:46;;;;;;;48.78;46.50;;;;;;;15.84;100.00;93187.88;5061764;28;20111;-70
2023/08/10 05:52:13;;;;;;;34.95;33.38;;;;;;;15.86;100.00;93183.22;5065110;28;20140;-69
2023/08/10 05:54:40;;;;;;;55.50;52.85;;;;;;;15.88;100.00;93188.94;5061343;28;20044;-69
2023/08/10 05:57:07;;;;;;;44.55;42.58;;;;;;;15.88;100.00;93201.91;5065110;28;20048;-69
2023/08/10 05:59:35;;;;;;;48.95;46.80;;;;;;;15.88;100.00;93209.66;5064837;28;20048;-69
2023/08/10 06:02:01;;;;;;;65.72;62.53;;;;;;;15.86;100.00;93219.47;5062208;28;20076;-70
2023/08/10 06:04:28;;;;;;;35.17;33.20;;;;;;;15.90;100.00;93213.59;5062593;28;20076;-70
2023/08/10 06:06:55;;;;;;;47.50;45.38;;;;;;;15.86;100.00;93215.09;5058335;28;20066;-70
2023/08/10 06:09:22;;;;;;;38.55;36.88;;;;;;;15.90;100.00;93205.03;5059458;28;20056;-70
2023/08/10 06:11:49;;;;;;;35.78;34.17;;;;;;;15.92;100.00;93208.13;5059486;28;20098;-70
2023/08/10 06:14:16;;;;;;;49.78;47.53;;;;;;;15.86;100.00;93220.25;5059284;28;20044;-70
2023/08/10 06:16:44;;;;;;;58.45;55.90;;;;;;;15.95;100.00;93222.44;5063314;28;20547;-70
2023/08/10 06:19:11;;;;;;;42.00;40.05;;;;;;;15.99;100.00;93226.13;5062431;28;20049;-70
2023/08/10 06:21:38;;;;;;;48.78;46.42;;;;;;;16.05;100.00;93229.56;5065450;28;20107;-70
2023/08/10 06:24:08;;;;;;;62.22;59.20;;;;;;;16.12;100.00;93230.91;5064877;28;20135;-70
2023/08/10 06:26:36;;;;;;;38.60;36.80;;;;;;;16.18;100.00;93229.19;5063383;28;20053;-70
2023/08/10 06:29:03;;;;;;;39.90;37.83;;;;;;;16.21;100.00;93233.09;5061267;28;20660;-70
2023/08/10 06:31:30;;;;;;;52.40;50.03;;;;;;;16.30;100.00;93244.59;5062306;28;20506;-71
2023/08/10 06:33:59;;;;;;;55.58;53.10;;;;;;;16.39;100.00;93239.75;5063073;28;20056;-71
2023/08/10 06:36:27;;;;;;;34.60;32.95;;;;;;;16.48;100.00;93242.69;5065423;28;20048;-71
2023/08/10 06:38:54;;;;;;;33.38;31.70;;;;;;;16.56;100.00;93243.03;5066869;28;20171;-71
2023/08/10 06:41:21;;;;;;;36.17;34.38;;;;;;;16.53;100.00;93232.34;5067061;28;20123;-71
2023/08/10 06:43:49;;;;;;;37.47;35.58;;;;;;;16.61;100.00;93244.09;5067727;28;20070;-71
2023/08/10 06:46:16;;;;;;;38.65;36.85;;;;;;;16.65;100.00;93245.16;5068500;28;20044;-71
2023/08/10 06:48:42;;;;;;;44.78;42.60;;;;;;;16.67;100.00;93249.06;5068155;28;20513;-71
2023/08/10 06:51:11;;;;;;;44.15;42.08;;;;;;;16.69;100.00;93244.44;5066097;28;20422;-71
2023/08/10 06:53:38;;;;;;;56.80;54.22;;;;;;;16.77;100.00;93247.59;5062535;28;20490;-71
2023/08/10 06:56:05;;;;;;;37.50;35.72;;;;;;;16.65;100.00;93214.81;5065169;28;20502;-72
2023/08/10 06:58:32;;;;;;;33.15;31.55;;;;;;;16.82;100.00;93245.81;5065610;28;20072;-72
2023/08/10 07:01:00;;;;;;;30.50;29.00;;;;;;;16.77;100.00;93250.19;5067022;28;20128;-72
2023/08/10 07:03:27;;;;;;;29.73;28.33;;;;;;;16.81;100.00;93239.06;5065626;28;20063;-72
2023/08/10 07:05:55;;;;;;;39.83;37.88;;;;;;;16.89;100.00;93250.81;5065124;28;20044;-72
2023/08/10 07:08:23;;;;;;;37.20;35.30;;;;;;;16.85;100.00;93252.31;5064240;28;20076;-72
2023/08/10 07:10:50;;;;;;;39.88;38.00;;;;;;;16.90;100.00;93254.19;5066035;28;20052;-73
2023/08/10 07:13:17;;;;;;;32.97;31.27;;;;;;;17.04;100.00;93237.19;5066090;28;20558;-73
2023/08/10 07:15:45;;;;;;;28.98;27.58;;;;;;;17.05;100.00;93254.34;5064853;28;20052;-73
2023/08/10 07:18:13;;;;;;;26.05;24.65;;;;;;;16.67;100.00;93249.06;5064595;28;20044;-73
2023/08/10 07:20:41;;;;;;;42.75;40.65;;;;;;;16.53;100.00;93247.91;5067364;28;20265;-73
2023/08/10 07:23:08;;;;;;;50.55;48.13;;;;;;;16.63;100.00;93242.81;5066427;28;20066;-73
2023/08/10 07:25:37;;;;;;;41.13;39.22;;;;;;;16.65;100.00;93251.13;5066019;28;20437;-73
2023/08/10 07:28:05;;;;;;;45.65;43.53;;;;;;;16.80;100.00;93253.06;5065603;28;20139;-73
2023/08/10 07:30:31;;;;;;;43.55;41.58;;;;;;;17.13;100.00;93255.66;5060224;28;20916;-73
2023/08/10 07:32:58;;;;;;;37.55;35.72;;;;;;;17.19;100.00;93249.50;5066574;28;20075;-73
2023/08/10 07:35:26;;;;;;;25.70;24.40;;;;;;;17.44;100.00;93239.50;5066220;28;20114;-73
2023/08/10 07:37:52;;;;;;;32.88;31.33;;;;;;;17.55;100.00;93251.50;5064300;28;20063;-73
2023/08/10 07:40:19;;;;;;;33.17;31.48;;;;;;;17.16;100.00;93257.78;5065969;28;20040;-73
2023/08/10 07:42:47;;;;;;;30.83;29.40;;;;;;;17.43;100.00;93256.91;5066364;28;20428;-73
2023/08/10 07:45:14;;;;;;;33.72;32.15;;;;;;;17.59;100.00;93257.75;5065682;28;20048;-73
2023/08/10 07:47:41;;;;;;;27.50;26.20;;;;;;;17.77;100.00;93260.97;5066441;28;20126;-74
2023/08/10 07:50:08;;;;;;;27.95;26.65;;;;;;;17.89;100.00;93263.38;5064105;28;20052;-74
2023/08/10 07:52:35;;;;;;;28.27;26.77;;;;;;;17.52;100.00;93261.63;5064527;28;20052;-73
2023/08/10 07:55:02;;;;;;;27.58;26.27;;;;;;;17.63;100.00;93251.03;5067211;28;20040;-74
2023/08/10 07:57:28;;;;;;;23.52;22.35;;;;;;;17.69;100.00;93264.06;5063003;28;20090;-74
2023/08/10 08:00:00;;;;;;;20.98;19.88;;;;;;;17.75;100.00;93256.03;5067874;28;20044;-74
2023/08/10 08:02:28;;;;;;;26.15;24.77;;;;;;;17.99;100.00;93254.81;5067981;28;20047;-74
2023/08/10 08:04:55;;;;;;;24.38;23.23;;;;;;;18.14;100.00;93254.13;5065691;28;20131;-74
2023/08/10 08:07:21;;;;;;;25.90;24.70;;;;;;;18.34;100.00;93253.41;5066136;28;20094;-74
2023/08/10 08:09:48;;;;;;;14.73;14.02;;;;;;;18.42;100.00;93255.50;5064021;28;20044;-75
2023/08/10 08:12:15;;;;;;;19.10;18.20;;;;;;;18.60;100.00;93250.06;5064990;28;20094;-75
2023/08/10 08:14:43;;;;;;;15.90;15.00;;;;;;;18.72;100.00;93248.00;5065899;28;21017;-75
2023/08/10 08:17:11;;;;;;;17.75;16.85;;;;;;;18.90;100.00;93233.69;5067002;28;20041;-75
2023/08/10 08:19:37;;;;;;;11.95;11.23;;;;;;;19.14;100.00;93259.22;5062173;28;20442;-74
2023/08/10 08:22:05;;;;;;;11.60;10.90;;;;;;;19.29;100.00;93262.81;5065714;28;20044;-75
2023/08/10 08:24:31;;;;;;;14.77;14.07;;;;;;;18.77;100.00;93255.00;5066139;28;20527;-74
2023/08/10 08:26:58;;;;;;;16.67;15.85;;;;;;;18.81;100.00;93258.66;5066649;28;20048;-75
2023/08/10 08:29:25;;;;;;;19.13;18.13;;;;;;;18.62;100.00;93255.78;5066968;28;20048;-74
2023/08/10 08:31:51;;;;;;;14.07;13.23;;;;;;;18.63;100.00;93241.72;5067134;28;20047;-74
2023/08/10 08:34:21;;;;;;;15.48;14.65;;;;;;;17.65;100.00;93243.00;5066176;28;20098;-74
2023/08/10 08:36:47;;;;;;;17.73;16.75;;;;;;;17.93;100.00;93256.63;5065129;28;20041;-75
2023/08/10 08:39:14;;;;;;;24.70;23.45;;;;;;;18.40;100.00;93256.78;5065558;28;20048;-75
2023/08/10 08:41:42;;;;;;;17.85;16.98;;;;;;;18.09;100.00;93265.28;5065529;28;20044;-75
2023/08/10 08:44:09;;;;;;;16.45;15.65;;;;;;;18.05;100.00;93253.78;5065811;28;20056;-75
2023/08/10 08:46:40;;;;;;;15.55;14.70;;;;;;;18.45;100.00;93262.00;5065036;28;20517;-75
2023/08/10 08:49:07;;;;;;;21.08;19.77;;;;;;;18.33;100.00;93264.81;5063368;28;20514;-75
2023/08/10 08:51:37;;;;;;;16.10;15.10;;;;;;;18.60;100.00;93261.25;5064483;28;20560;-76
2023/08/10 08:54:04;;;;;;;15.63;14.90;;;;;;;18.43;100.00;93267.44;5064365;28;20106;-76
2023/08/10 08:56:31;;;;;;;14.43;13.73;;;;;;;18.51;100.00;93278.41;5060321;28;20980;-75
2023/08/10 08:58:57;;;;;;;16.55;15.75;;;;;;;18.36;100.00;93284.34;5064676;28;20045;-76
2023/08/10 09:01:25;;;;;;;17.20;16.35;;;;;;;18.30;100.00;93283.56;5061410;28;20102;-76
2023/08/10 09:03:52;;;;;;;15.05;14.25;;;;;;;18.37;100.00;93283.31;5063507;28;20141;-76
2023/08/10 09:06:19;;;;;;;12.60;11.77;;;;;;;18.42;100.00;93278.09;5060516;28;20153;-75
2023/08/10 09:08:47;;;;;;;18.35;17.45;;;;;;;18.25;100.00;93284.31;5062257;28;20110;-75
2023/08/10 09:11:15;;;;;;;17.55;16.67;;;;;;;18.11;100.00;93278.81;5061624;28;20193;-75
2023/08/10 09:13:41;;;;;;;18.67;17.60;;;;;;;18.21;100.00;93277.28;5061280;28;20120;-75
2023/08/10 09:16:10;;;;;;;23.73;22.58;;;;;;;18.22;100.00;93266.63;5060239;28;20449;-75
2023/08/10 09:18:39;;;;;;;22.65;21.40;;;;;;;18.60;100.00;93283.88;5061388;28;20958;-75
2023/08/10 09:21:14;;;;;;;21.52;20.50;;;;;;;18.58;100.00;93283.34;5060374;28;20142;-75
2023/08/10 09:23:42;;;;;;;12.85;12.05;;;;;;;18.75;100.00;93275.31;5061705;28;20107;-75
2023/08/10 09:26:12;;;;;;;16.92;16.13;;;;;;;19.07;100.00;93272.47;5061431;28;20052;-76
2023/08/10 09:28:39;;;;;;;17.88;16.98;;;;;;;19.35;100.00;93274.81;5061224;28;20097;-75
2023/08/10 09:31:07;;;;;;;17.75;16.65;;;;;;;18.75;100.00;93260.47;5062027;28;20092;-75
2023/08/10 09:33:35;;;;;;;20.15;19.15;;;;;;;18.55;100.00;93282.84;5061645;28;20105;-75
2023/08/10 09:36:02;;;;;;;20.52;19.33;;;;;;;19.00;100.00;93271.94;5060687;28;20064;-76
2023/08/10 09:38:29;;;;;;;18.30;17.40;;;;;;;19.44;100.00;93272.47;5059713;28;20056;-76
2023/08/10 09:41:11;;;;;;;11.32;10.73;;;;;;;19.95;100.00;93261.09;5056725;28;20087;-75
2023/08/10 09:43:38;;;;;;;7.63;7.13;;;;;;;20.34;100.00;93275.31;5062874;28;20092;-75
2023/08/10 09:46:05;;;;;;;6.07;5.63;;;;;;;20.75;100.00;93276.91;5059653;28;20048;-75
2023/08/10 09:48:36;;;;;;;5.70;5.22;;;;;;;20.76;100.00;93264.63;5059354;28;20129;-75
2023/08/10 09:51:04;;;;;;;4.53;4.13;;;;;;;20.89;92.60;93273.69;5060593;28;20059;-75
2023/08/10 09:53:32;;;;;;;4.78;4.38;;;;;;;20.71;91.81;93265.44;5060083;28;20612;-75
2023/08/10 09:55:58;;;;;;;5.05;4.65;;;;;;;20.65;90.69;93277.72;5059970;28;20102;-75
2023/08/10 09:58:27;;;;;;;5.35;4.85;;;;;;;21.18;96.93;93283.38;5061078;28;20044;-75
2023/08/10 10:00:54;;;;;;;4.22;3.92;;;;;;;21.59;96.08;93272.59;5060373;28;20542;-75
2023/08/10 10:03:22;;;;;;;4.40;4.00;;;;;;;21.96;94.13;93256.53;5060909;28;20099;-75
2023/08/10 10:05:50;;;;;;;4.32;3.92;;;;;;;22.39;92.54;93260.94;5060931;28;20049;-75
2023/08/10 10:08:18;;;;;;;3.75;3.45;;;;;;;22.50;86.82;93272.84;5059280;28;20575;-75
2023/08/10 10:10:45;;;;;;;3.40;3.10;;;;;;;22.70;82.83;93281.50;5062360;28;20040;-76
2023/08/10 10:13:15;;;;;;;3.03;2.40;;;;;;;22.50;83.66;93272.84;5063766;28;20596;-75
2023/08/10 10:15:43;;;;;;;3.08;2.30;;;;;;;22.82;83.49;93270.63;5066478;28;20167;-75
2023/08/10 10:18:11;;;;;;;2.60;2.40;;;;;;;22.77;79.86;93266.22;5064383;28;20565;-76
2023/08/10 10:20:40;;;;;;;2.45;2.22;;;;;;;22.88;78.42;93277.31;5063819;28;20094;-75
2023/08/10 10:23:13;;;;;;;2.55;2.22;;;;;;;22.98;82.94;93255.44;5064049;28;20052;-75
2023/08/10 10:25:40;;;;;;;2.53;2.33;;;;;;;23.24;82.24;93260.25;5064605;28;20133;-75
2023/08/10 10:28:16;;;;;;;3.08;2.50;;;;;;;23.48;82.32;93264.59;5066135;28;20050;-75
2023/08/10 10:30:55;;;;;;;;;;;;;;;23.53;80.07;93264.50;5067988;28;20195;-75
2023/08/10 10:33:23;;;;;;;2.67;2.25;;;;;;;23.60;79.87;93262.28;5062874;28;19926;-75
2023/08/10 10:36:06;;;;;;;2.72;2.10;;;;;;;22.01;76.50;93235.53;5065302;28;20188;-75
2023/08/10 10:38:33;;;;;;;3.13;2.88;;;;;;;21.71;78.73;93264.38;5063110;28;20047;-75
2023/08/10 10:41:09;;;;;;;4.20;3.08;;;;;;;22.27;81.15;93256.91;5066318;28;20118;-75
2023/08/10 10:43:35;;;;;;;3.47;2.60;;;;;;;22.36;76.81;93257.06;5065469;28;20044;-75
2023/08/10 10:46:04;;;;;;;3.80;2.78;;;;;;;21.63;76.12;93249.28;5059989;28;20114;-75
2023/08/10 10:48:35;;;;;;;2.53;2.30;;;;;;;21.32;79.86;93263.44;5065677;28;20041;-75
2023/08/10 10:51:04;;;;;;;4.10;3.15;;;;;;;21.41;78.78;93253.16;5064364;28;20048;-75
2023/08/10 10:53:32;;;;;;;3.17;2.97;;;;;;;21.26;78.63;93264.53;5065316;28;20167;-75
2023/08/10 10:55:59;;;;;;;2.90;2.67;;;;;;;21.83;80.15;93252.75;5066070;28;20059;-76
2023/08/10 10:58:29;;;;;;;3.50;3.20;;;;;;;22.18;75.37;93250.78;5068566;28;20053;-75
2023/08/10 11:00:55;;;;;;;4.15;2.95;;;;;;;22.20;73.25;93251.25;5066484;28;20082;-75
2023/08/10 11:03:27;;;;;;;2.90;2.60;;;;;;;22.57;76.89;93248.97;5065318;28;20045;-75
2023/08/10 11:05:54;;;;;;;4.65;3.45;;;;;;;22.59;76.18;93248.69;5066103;28;20498;-75
2023/08/10 11:08:20;;;;;;;3.45;2.38;;;;;;;22.58;75.73;93244.50;5065704;28;20060;-76
2023/08/10 11:10:50;;;;;;;2.10;1.90;;;;;;;22.88;73.98;93243.28;5065785;28;20098;-75
2023/08/10 11:13:18;;;;;;;2.53;2.33;;;;;;;22.74;73.95;93245.06;5066315;28;20075;-75
2023/08/10 11:15:47;;;;;;;3.03;1.88;;;;;;;23.17;77.55;93231.03;5065250;28;20193;-75
2023/08/10 11:18:15;;;;;;;2.78;2.28;;;;;;;23.47;74.93;93237.59;5062878;28;20053;-76